Latest Weather Observations for Mount Baw Baw

IDV60801

Issued at 4:35 pm EST Wednesday 3 September 2014 (issued every 30 minutes, with the page automatically refreshed every 10 minutes)

About weather observations | Map of weather stations | Latest weather observations for VIC | Other Formats
Station Details ID: 085291 Name: MOUNT BAW BAW Lat: -37.84 Lon: 146.27 Height: 1561.0 m
Data from the previous 72 hours. | See also: Recent months at Mount Baw Baw
Date/Time
EST
Temp
°C
App
Temp
°C
Dew
Point
Rel
Hum
%
Delta-T
°C
Wind Press
QNH
hPa
Press
MSL
hPa
Rain
since 9 am
mm
Dir
 
Spd
km/h
Gust
km/h
Spd
kts
Gust
kts
03/04:30pm -0.2 -4.7 -0.3 99 0.0 SW 13 17 - 9 - - 0.0
03/04:00pm -0.1 -4.3 -0.7 96 0.2 SW 11 17 - 9 - - 0.0
03/03:30pm 0.3 -3.8 -0.4 95 0.3 SW 11 15 - 8 - - 0.0
03/03:00pm 0.1 -3.3 -0.6 95 0.3 SSW 7 11 - 6 - - 0.0
03/02:30pm -0.3 -4.5 -0.9 96 0.2 SW 11 15 - 8 - - 0.0
03/02:00pm 0.2 -3.9 -0.2 97 0.2 SW 11 15 - 8 - - 0.0
03/01:30pm 0.0 -4.6 -0.8 94 0.3 SW 13 17 - 9 - - 0.0
03/01:00pm 0.4 -3.7 -0.2 96 0.2 SSW 11 17 - 9 - - 0.0
03/12:30pm 0.8 -2.9 0.2 96 0.2 SSW 9 13 - 7 - - 0.0
03/12:00pm 1.1 -0.9 -0.1 92 0.5 CALM 0 4 - 2 - - 0.0
03/11:30am 0.9 -1.0 0.5 97 0.2 CALM 0 0 - 0 - - 0.0
03/11:00am 0.2 -1.8 -0.2 97 0.2 CALM 0 0 - 0 - - 0.0
03/10:30am -0.1 -2.2 -0.7 96 0.2 CALM 0 0 - 0 - - 0.0
03/10:00am -0.8 -3.0 -1.4 96 0.2 CALM 0 0 - 0 - - 0.0
03/09:30am -1.2 -3.4 -1.3 99 0.0 CALM 0 0 - 0 - - 0.0
03/09:00am -2.3 -4.6 -2.4 99 -0.1 CALM 0 0 - 0 - - 10.0
03/08:30am -2.6 -4.9 -2.7 99 -0.1 CALM 0 0 - 0 - - 10.0
03/08:00am -2.9 -5.3 -3.0 99 -0.1 CALM 0 0 - 0 - - 10.0
03/07:30am -2.9 -5.3 -3.0 99 -0.1 CALM 0 0 - 0 - - 9.8
03/07:00am -2.9 -5.3 -3.0 99 -0.1 CALM 0 0 - 0 - - 9.8
03/06:30am -2.6 -4.9 -2.7 99 -0.1 CALM 0 0 - 0 - - 9.8
03/06:00am -2.4 -4.7 -2.5 99 -0.1 SW 0 0 - 0 - - 9.6
03/05:30am -2.4 -4.7 -2.5 99 -0.1 CALM 0 0 - 0 - - 9.6
03/05:00am -2.2 -4.5 -2.3 99 -0.1 CALM 0 0 - 0 - - 9.0
03/04:30am -2.3 -4.6 -2.4 99 -0.1 CALM 0 0 - 0 - - 8.6
03/04:00am -2.1 -4.4 -2.2 99 -0.1 CALM 0 0 - 0 - - 8.2
03/03:30am -2.0 -4.3 -2.1 99 -0.1 CALM 0 0 - 0 - - 8.0
03/03:00am -2.0 -4.3 -2.1 99 -0.1 CALM 0 0 - 0 - - 7.4
03/02:30am -2.1 -4.4 -2.2 99 -0.1 CALM 0 0 - 0 - - 7.2
03/02:00am -1.7 -3.9 -1.8 99 0.0 CALM 0 0 - 0 - - 6.6
03/01:30am -1.8 -4.0 -1.9 99 -0.1 CALM 0 0 - 0 - - 6.4
03/01:00am -1.7 -3.9 -1.8 99 0.0 CALM 0 0 - 0 - - 6.4
03/12:30am -1.7 -3.9 -1.8 99 0.0 CALM 0 0 - 0 - - 6.2
03/12:00am -1.8 -4.0 -1.9 99 -0.1 SW 0 0 - 0 - - 6.2
 
Date/Time
EST
Temp
°C
App
Temp
°C
Dew
Point
Rel
Hum
%
Delta-T
°C
Wind Press
QNH
hPa
Press
MSL
hPa
Rain
since 9 am
mm
Dir
 
Spd
km/h
Gust
km/h
Spd
kts
Gust
kts
02/11:30pm -1.7 -3.9 -1.8 99 0.0 CALM 0 0 - 0 - - 6.2
02/11:00pm -1.9 -4.2 -2.0 99 -0.1 CALM 0 0 - 0 - - 6.2
02/10:30pm -1.5 -3.7 -1.6 99 0.0 CALM 0 0 - 0 - - 6.2
02/10:00pm -1.8 -4.0 -1.9 99 -0.1 CALM 0 0 - 0 - - 6.2
02/09:30pm -1.9 -4.2 -2.0 99 -0.1 CALM 0 0 - 0 - - 6.0
02/09:00pm -2.1 -4.4 -2.2 99 -0.1 CALM 0 0 - 0 - - 6.0
02/08:30pm -2.3 -4.6 -2.4 99 -0.1 CALM 0 0 - 0 - - 6.0
02/08:00pm -2.5 -4.8 -2.6 99 -0.1 CALM 0 0 - 0 - - 6.0
02/07:30pm -2.5 -4.8 -2.6 99 -0.1 CALM 0 0 - 0 - - 6.0
02/07:00pm -2.3 -4.6 -2.4 99 -0.1 CALM 0 0 - 0 - - 6.0
02/06:30pm -1.7 -3.9 -1.8 99 0.0 CALM 0 0 - 0 - - 6.0
02/06:00pm -0.9 -3.0 -1.0 99 0.0 CALM 0 0 - 0 - - 6.0
02/05:30pm -1.3 -3.5 -1.4 99 0.0 CALM 0 0 - 0 - - 6.0
02/05:00pm -0.7 -2.8 -0.8 99 0.0 CALM 0 0 - 0 - - 6.0
02/04:30pm -1.1 -3.3 -1.2 99 0.0 CALM 0 0 - 0 - - 6.0
02/04:00pm -0.6 -2.7 -0.7 99 0.0 CALM 0 0 - 0 - - 6.0
02/03:30pm -0.6 -2.7 -0.7 99 0.0 CALM 0 0 - 0 - - 6.0
02/03:00pm -0.3 -2.3 -0.4 99 0.0 CALM 0 0 - 0 - - 6.0
02/02:30pm -0.8 -2.9 -0.9 99 0.0 CALM 0 0 - 0 - - 4.6
02/02:00pm -0.3 -2.3 -0.4 99 0.0 CALM 0 0 - 0 - - 3.4
02/01:30pm -0.7 -2.8 -0.8 99 0.0 CALM 0 0 - 0 - - 3.4
02/01:00pm -1.2 -3.4 -1.3 99 0.0 CALM 0 0 - 0 - - 2.2
02/12:30pm -1.1 -3.3 -1.2 99 0.0 CALM 0 0 - 0 - - 0.4
02/12:00pm -0.2 -2.2 -0.3 99 0.0 CALM 0 0 - 0 - - 0.4
02/11:30am -0.6 -2.7 -0.7 99 0.0 CALM 0 0 - 0 - - 0.4
02/11:00am -0.7 -2.8 -0.8 99 0.0 CALM 0 0 - 0 - - 0.4
02/10:30am -0.8 -2.9 -0.9 99 0.0 CALM 0 0 - 0 - - 0.4
02/10:00am -0.7 -2.8 -0.8 99 0.0 CALM 0 0 - 0 - - 0.2
02/09:30am -0.9 -3.0 -1.0 99 0.0 CALM 0 0 - 0 - - 0.2
02/09:00am -1.0 -3.1 -1.1 99 0.0 CALM 0 0 - 0 - - 30.6
02/08:30am -0.8 -2.9 -0.9 99 0.0 CALM 0 0 - 0 - - 30.0
02/08:00am -0.8 -2.9 -0.9 99 0.0 CALM 0 0 - 0 - - 30.0
02/07:30am -0.7 -2.8 -0.8 99 0.0 CALM 0 0 - 0 - - 30.0
02/07:00am -0.6 -2.7 -0.7 99 0.0 CALM 0 0 - 0 - - 29.8
02/06:30am -1.0 -3.1 -1.1 99 0.0 CALM 0 0 - 0 - - 29.2
02/06:00am -0.8 -2.9 -0.9 99 0.0 CALM 0 0 - 0 - - 28.4
02/05:30am -0.7 -2.8 -0.8 99 0.0 CALM 0 0 - 0 - - 28.0
02/05:00am -0.6 -2.7 -0.7 99 0.0 CALM 0 0 - 0 - - 27.8
02/04:30am -0.5 -2.6 -0.6 99 0.0 CALM 0 0 - 0 - - 27.8
02/04:00am -0.4 -2.5 -0.5 99 0.0 CALM 0 0 - 0 - - 27.4
02/03:30am -0.5 -2.6 -0.6 99 0.0 CALM 0 0 - 0 - - 27.2
02/03:00am -0.3 -2.3 -0.4 99 0.0 CALM 0 0 - 0 - - 27.2
02/02:30am -0.4 -2.5 -0.5 99 0.0 CALM 0 0 - 0 - - 25.8
02/02:00am -0.4 -2.5 -0.5 99 0.0 CALM 0 0 - 0 - - 24.0
02/01:30am -0.4 -7.0 -0.5 99 0.0 SSW 24 37 - 20 - - 23.4
02/01:00am -0.1 -6.7 -0.2 99 0.0 SSW 24 37 - 20 - - 23.0
02/12:30am -0.1 -6.7 -0.2 99 0.0 SW 24 39 - 21 - - 22.8
02/12:00am -0.1 -7.1 -0.2 99 0.0 SW 26 35 - 19 - - 21.4
 
Date/Time
EST
Temp
°C
App
Temp
°C
Dew
Point
Rel
Hum
%
Delta-T
°C
Wind Press
QNH
hPa
Press
MSL
hPa
Rain
since 9 am
mm
Dir
 
Spd
km/h
Gust
km/h
Spd
kts
Gust
kts
01/11:30pm -0.1 -7.1 -0.2 99 0.0 WSW 26 43 - 23 - - 19.8
01/11:00pm 0.0 -6.6 -0.1 99 0.0 WSW 24 33 - 18 - - 18.2
01/10:30pm 0.0 -6.9 -0.1 99 0.0 WSW 26 43 - 23 - - 16.4
01/10:00pm 0.0 -6.6 -0.1 99 0.0 WSW 24 37 - 20 - - 14.2
01/09:30pm -0.1 -5.9 -0.2 99 0.0 WSW 20 32 - 17 - - 12.6
01/09:00pm -0.3 -6.9 -0.4 99 0.0 WSW 24 35 - 19 - - 11.4
01/08:30pm -0.1 -5.3 -0.2 99 0.0 WSW 17 24 - 13 - - 10.2
01/08:00pm -0.1 -5.7 -0.2 99 0.0 WSW 19 26 - 14 - - 9.0
01/07:30pm -0.2 -5.5 -0.3 99 0.0 WSW 17 22 - 12 - - 8.2
01/07:00pm -0.2 -4.7 -0.3 99 0.0 WSW 13 19 - 10 - - 7.4
01/06:30pm -0.2 -5.5 -0.3 99 0.0 WSW 17 24 - 13 - - 5.8
01/06:00pm 0.0 -4.8 -0.1 99 0.0 W 15 24 - 13 - - 4.4
01/05:30pm 0.7 -4.0 0.6 99 0.0 W 15 22 - 12 - - 3.6
01/05:00pm 0.9 -4.2 0.8 99 0.0 W 17 30 - 16 - - 2.6
01/04:30pm 1.0 -4.5 0.9 99 0.0 WNW 19 32 - 17 - - 1.8
01/04:00pm 1.0 -4.5 0.9 99 0.0 W 19 26 - 14 - - 1.8
01/03:30pm 0.9 -3.4 0.8 99 0.0 NW 13 24 - 13 - - 1.4
01/03:00pm 1.6 -3.0 1.5 99 0.0 NNW 15 30 - 16 - - 0.6
01/02:30pm 2.4 -2.2 1.5 94 0.4 NW 15 32 - 17 - - 0.0
01/02:00pm 4.0 -0.7 1.0 81 1.3 WNW 15 28 - 15 - - 0.0
01/01:30pm 5.4 0.2 0.4 70 2.1 NW 17 30 - 16 - - 0.0
01/01:00pm 6.1 1.7 0.2 66 2.5 NW 13 30 - 16 - - 0.0
01/12:30pm 6.8 1.9 -0.2 61 3.0 WNW 15 30 - 16 - - 0.0
01/12:00pm 6.1 0.4 -0.8 61 2.9 NW 19 37 - 20 - - 0.0
01/11:30am 7.2 1.5 -1.0 56 3.5 NNW 19 37 - 20 - - 0.0
01/11:00am 5.8 0.1 -0.9 62 2.8 NNW 19 35 - 19 - - 0.0
01/10:30am 7.2 1.3 -1.0 56 3.5 NNW 20 50 - 27 - - 0.0
01/10:00am 7.2 1.4 -0.3 59 3.2 NNW 20 43 - 23 - - 0.0
01/09:30am 5.6 -1.1 -0.9 63 2.7 N 24 50 - 27 - - 0.0
01/09:00am 5.2 -0.6 -0.4 67 2.3 N 20 39 - 21 - - 0.0
01/08:30am 4.9 -1.7 -0.3 69 2.2 N 24 44 - 24 - - 0.0
01/08:00am 4.5 -2.1 -0.3 71 2.0 N 24 48 - 26 - - 0.0
01/07:30am 3.8 -1.7 0.3 78 1.5 N 19 37 - 20 - - 0.0
01/07:00am 3.8 -1.4 0.3 78 1.5 NNE 17 28 - 15 - - 0.0
01/06:30am 4.4 -1.2 -0.2 72 1.9 N 19 35 - 19 - - 0.0
01/06:00am 4.4 -0.8 -0.2 72 1.9 N 17 33 - 18 - - 0.0
01/05:30am 4.4 -1.4 0.0 73 1.8 N 20 39 - 21 - - 0.0
01/05:00am 4.4 -1.2 0.0 73 1.8 N 19 35 - 19 - - 0.0
01/04:30am 4.5 -1.3 0.1 73 1.9 N 20 41 - 22 - - 0.0
01/04:00am 4.5 -1.3 0.1 73 1.9 N 20 41 - 22 - - 0.0
01/03:30am 4.6 -1.5 0.2 73 1.9 N 22 43 - 23 - - 0.0
01/03:00am 4.7 -1.8 0.1 72 1.9 N 24 44 - 24 - - 0.0
01/02:30am 5.1 -1.1 -0.1 69 2.2 N 22 44 - 24 - - 0.0
01/02:00am 5.1 -0.7 0.1 70 2.1 N 20 35 - 19 - - 0.0
01/01:30am 5.1 -0.1 0.1 70 2.1 N 17 41 - 22 - - 0.0
01/01:00am 5.2 0.0 0.2 70 2.1 N 17 33 - 18 - - 0.0
01/12:30am 5.5 -0.1 0.1 68 2.3 N 19 35 - 19 - - 0.0
01/12:00am 5.6 0.0 0.2 68 2.3 N 19 39 - 21 - - 0.0
 
Date/Time
EST
Temp
°C
App
Temp
°C
Dew
Point
Rel
Hum
%
Delta-T
°C
Wind Press
QNH
hPa
Press
MSL
hPa
Rain
since 9 am
mm
Dir
 
Spd
km/h
Gust
km/h
Spd
kts
Gust
kts
31/11:30pm 5.6 0.4 0.0 67 2.4 N 17 30 - 16 - - 0.0
31/11:00pm 5.7 0.5 0.1 67 2.4 NNW 17 33 - 18 - - 0.0
31/10:30pm 5.7 0.1 -0.1 66 2.5 NNW 19 37 - 20 - - 0.0
31/10:00pm 5.7 0.4 -0.6 64 2.6 NNW 17 32 - 17 - - 0.0
31/09:30pm 5.3 0.0 -0.3 67 2.4 NNW 17 33 - 18 - - 0.0
31/09:00pm 4.8 -0.3 0.9 76 1.7 N 17 28 - 15 - - 0.0
31/08:30pm 4.5 -0.1 1.4 80 1.3 N 15 28 - 15 - - 0.0
31/08:00pm 4.5 -0.4 2.0 84 1.1 N 17 30 - 16 - - 0.0
31/07:30pm 4.9 1.0 1.0 76 1.7 N 11 22 - 12 - - 0.0
31/07:00pm 5.0 1.5 1.5 78 1.5 N 9 19 - 10 - - 0.0
31/06:30pm 5.0 1.2 2.0 81 1.3 N 11 19 - 10 - - 0.0
31/06:00pm 5.0 1.7 2.5 84 1.1 NNE 9 19 - 10 - - 0.0
31/05:30pm 5.5 2.2 2.5 81 1.4 N 9 17 - 9 - - 0.0
31/05:00pm 5.9 3.0 2.5 79 1.5 N 7 15 - 8 - - 0.0

Other Formats:

Comma delimited format used in spreadsheet applications
http://www.bom.gov.au/fwo/IDV60801/IDV60801.95901.axf

JavaScript Object Notation format (JSON) in row-major order
http://www.bom.gov.au/fwo/IDV60801/IDV60801.95901.json